sensor_id;sensor_type;location;lat;lon;timestamp;temperature;humidity
28677;DHT22;15858;48.338;11.078;2024-03-08T00:01:33;2.50;99.90
28677;DHT22;15858;48.338;11.078;2024-03-08T00:04:00;2.30;99.90
28677;DHT22;15858;48.338;11.078;2024-03-08T00:06:26;2.40;99.90
28677;DHT22;15858;48.338;11.078;2024-03-08T00:08:53;2.40;99.90
28677;DHT22;15858;48.338;11.078;2024-03-08T00:11:20;2.40;99.90
28677;DHT22;15858;48.338;11.078;2024-03-08T00:13:47;2.40;99.90
28677;DHT22;15858;48.338;11.078;2024-03-08T00:16:13;2.60;99.90
28677;DHT22;15858;48.338;11.078;2024-03-08T00:18:40;2.60;99.90
28677;DHT22;15858;48.338;11.078;2024-03-08T00:21:07;2.50;99.90
28677;DHT22;15858;48.338;11.078;2024-03-08T00:23:34;2.30;99.90
28677;DHT22;15858;48.338;11.078;2024-03-08T00:26:00;2.40;99.90
28677;DHT22;15858;48.338;11.078;2024-03-08T00:28:27;2.30;99.90
28677;DHT22;15858;48.338;11.078;2024-03-08T00:30:54;2.50;99.90
28677;DHT22;15858;48.338;11.078;2024-03-08T00:33:20;2.50;99.90
28677;DHT22;15858;48.338;11.078;2024-03-08T00:35:47;2.40;99.90
28677;DHT22;15858;48.338;11.078;2024-03-08T00:38:14;2.40;99.90
28677;DHT22;15858;48.338;11.078;2024-03-08T00:40:41;2.40;99.90
28677;DHT22;15858;48.338;11.078;2024-03-08T00:43:07;2.40;99.90
28677;DHT22;15858;48.338;11.078;2024-03-08T00:45:34;2.30;99.90
28677;DHT22;15858;48.338;11.078;2024-03-08T00:48:01;2.20;99.90
28677;DHT22;15858;48.338;11.078;2024-03-08T00:50:28;2.10;99.90
28677;DHT22;15858;48.338;11.078;2024-03-08T00:52:54;2.20;99.90
28677;DHT22;15858;48.338;11.078;2024-03-08T00:55:21;2.10;99.90
28677;DHT22;15858;48.338;11.078;2024-03-08T00:57:48;2.10;99.90
28677;DHT22;15858;48.338;11.078;2024-03-08T01:00:15;2.20;99.90
28677;DHT22;15858;48.338;11.078;2024-03-08T01:02:41;2.20;99.90
28677;DHT22;15858;48.338;11.078;2024-03-08T01:05:08;2.30;99.90
28677;DHT22;15858;48.338;11.078;2024-03-08T01:07:35;2.40;99.90
28677;DHT22;15858;48.338;11.078;2024-03-08T01:10:05;2.10;99.90
28677;DHT22;15858;48.338;11.078;2024-03-08T01:12:32;2.00;99.90
28677;DHT22;15858;48.338;11.078;2024-03-08T01:14:59;1.90;99.90
28677;DHT22;15858;48.338;11.078;2024-03-08T01:17:26;2.10;99.90
28677;DHT22;15858;48.338;11.078;2024-03-08T01:19:52;2.20;99.90
28677;DHT22;15858;48.338;11.078;2024-03-08T01:22:19;2.00;99.90
28677;DHT22;15858;48.338;11.078;2024-03-08T01:24:46;2.00;99.90
28677;DHT22;15858;48.338;11.078;2024-03-08T01:27:13;2.10;99.90
28677;DHT22;15858;48.338;11.078;2024-03-08T01:29:39;2.20;99.90
28677;DHT22;15858;48.338;11.078;2024-03-08T01:32:06;2.10;99.90
28677;DHT22;15858;48.338;11.078;2024-03-08T01:34:33;2.10;99.90
28677;DHT22;15858;48.338;11.078;2024-03-08T01:37:00;2.10;99.90
28677;DHT22;15858;48.338;11.078;2024-03-08T01:39:26;2.10;99.90
28677;DHT22;15858;48.338;11.078;2024-03-08T01:41:53;2.10;99.90
28677;DHT22;15858;48.338;11.078;2024-03-08T01:44:20;2.10;99.90
28677;DHT22;15858;48.338;11.078;2024-03-08T01:46:47;2.20;99.90
28677;DHT22;15858;48.338;11.078;2024-03-08T01:49:16;2.10;99.90
28677;DHT22;15858;48.338;11.078;2024-03-08T01:51:42;2.00;99.90
28677;DHT22;15858;48.338;11.078;2024-03-08T01:54:10;2.00;99.90
28677;DHT22;15858;48.338;11.078;2024-03-08T01:56:38;2.00;99.90
28677;DHT22;15858;48.338;11.078;2024-03-08T01:59:05;2.00;99.90
28677;DHT22;15858;48.338;11.078;2024-03-08T02:01:32;2.00;99.90
28677;DHT22;15858;48.338;11.078;2024-03-08T02:03:59;1.90;99.90
28677;DHT22;15858;48.338;11.078;2024-03-08T02:06:26;1.90;99.90
28677;DHT22;15858;48.338;11.078;2024-03-08T02:08:52;1.90;99.90
28677;DHT22;15858;48.338;11.078;2024-03-08T02:11:19;2.00;99.90
28677;DHT22;15858;48.338;11.078;2024-03-08T02:13:46;1.90;99.90
28677;DHT22;15858;48.338;11.078;2024-03-08T02:16:20;1.90;99.90
28677;DHT22;15858;48.338;11.078;2024-03-08T02:18:47;2.00;99.90
28677;DHT22;15858;48.338;11.078;2024-03-08T02:21:17;1.80;99.90
28677;DHT22;15858;48.338;11.078;2024-03-08T02:23:44;1.80;99.90
28677;DHT22;15858;48.338;11.078;2024-03-08T02:26:11;1.80;99.90
28677;DHT22;15858;48.338;11.078;2024-03-08T02:28:38;1.90;99.90
28677;DHT22;15858;48.338;11.078;2024-03-08T02:31:05;2.00;99.90
28677;DHT22;15858;48.338;11.078;2024-03-08T02:33:31;2.00;99.90
28677;DHT22;15858;48.338;11.078;2024-03-08T02:35:58;1.90;99.90
28677;DHT22;15858;48.338;11.078;2024-03-08T02:38:25;1.90;99.90
28677;DHT22;15858;48.338;11.078;2024-03-08T02:40:53;1.90;99.90
28677;DHT22;15858;48.338;11.078;2024-03-08T02:43:22;1.90;99.90
28677;DHT22;15858;48.338;11.078;2024-03-08T02:45:49;1.70;99.90
28677;DHT22;15858;48.338;11.078;2024-03-08T02:48:16;1.70;99.90
28677;DHT22;15858;48.338;11.078;2024-03-08T02:50:43;1.80;99.90
28677;DHT22;15858;48.338;11.078;2024-03-08T02:53:11;1.70;99.90
28677;DHT22;15858;48.338;11.078;2024-03-08T02:55:39;1.70;99.90
28677;DHT22;15858;48.338;11.078;2024-03-08T02:58:06;1.70;99.90
28677;DHT22;15858;48.338;11.078;2024-03-08T03:00:32;1.70;99.90
28677;DHT22;15858;48.338;11.078;2024-03-08T03:03:00;1.80;99.90
28677;DHT22;15858;48.338;11.078;2024-03-08T03:05:26;1.70;99.90
28677;DHT22;15858;48.338;11.078;2024-03-08T03:07:53;1.70;99.90
28677;DHT22;15858;48.338;11.078;2024-03-08T03:10:20;1.70;99.90
28677;DHT22;15858;48.338;11.078;2024-03-08T03:12:47;1.80;99.90
28677;DHT22;15858;48.338;11.078;2024-03-08T03:15:14;1.90;99.90
28677;DHT22;15858;48.338;11.078;2024-03-08T03:17:41;1.70;99.90
28677;DHT22;15858;48.338;11.078;2024-03-08T03:20:11;1.70;99.90
28677;DHT22;15858;48.338;11.078;2024-03-08T03:22:38;1.60;99.90
28677;DHT22;15858;48.338;11.078;2024-03-08T03:25:05;1.50;99.90
28677;DHT22;15858;48.338;11.078;2024-03-08T03:27:33;1.50;99.90
28677;DHT22;15858;48.338;11.078;2024-03-08T03:29:59;1.60;99.90
28677;DHT22;15858;48.338;11.078;2024-03-08T03:32:26;1.50;99.90
28677;DHT22;15858;48.338;11.078;2024-03-08T03:34:53;1.70;99.90
28677;DHT22;15858;48.338;11.078;2024-03-08T03:37:19;1.50;99.90
28677;DHT22;15858;48.338;11.078;2024-03-08T03:39:46;1.50;99.90
28677;DHT22;15858;48.338;11.078;2024-03-08T03:42:13;1.50;99.90
28677;DHT22;15858;48.338;11.078;2024-03-08T03:44:40;1.50;99.90
28677;DHT22;15858;48.338;11.078;2024-03-08T03:47:06;1.50;99.90
28677;DHT22;15858;48.338;11.078;2024-03-08T03:49:33;1.60;99.90
28677;DHT22;15858;48.338;11.078;2024-03-08T03:52:00;1.50;99.90
28677;DHT22;15858;48.338;11.078;2024-03-08T03:54:26;1.40;99.90
28677;DHT22;15858;48.338;11.078;2024-03-08T03:56:53;1.30;99.90
28677;DHT22;15858;48.338;11.078;2024-03-08T03:59:20;1.30;99.90
28677;DHT22;15858;48.338;11.078;2024-03-08T04:01:46;1.30;99.90
28677;DHT22;15858;48.338;11.078;2024-03-08T04:04:13;1.40;99.90
28677;DHT22;15858;48.338;11.078;2024-03-08T04:06:40;1.30;99.90
28677;DHT22;15858;48.338;11.078;2024-03-08T04:09:07;1.30;99.90
28677;DHT22;15858;48.338;11.078;2024-03-08T04:11:34;1.30;99.90
28677;DHT22;15858;48.338;11.078;2024-03-08T04:14:00;1.40;99.90
28677;DHT22;15858;48.338;11.078;2024-03-08T04:16:27;1.30;99.90
28677;DHT22;15858;48.338;11.078;2024-03-08T04:18:54;1.50;99.90
28677;DHT22;15858;48.338;11.078;2024-03-08T04:21:21;1.30;99.90
28677;DHT22;15858;48.338;11.078;2024-03-08T04:23:47;1.30;99.90
28677;DHT22;15858;48.338;11.078;2024-03-08T04:26:14;1.40;99.90
28677;DHT22;15858;48.338;11.078;2024-03-08T04:28:45;1.40;99.90
28677;DHT22;15858;48.338;11.078;2024-03-08T04:31:11;1.40;99.90
28677;DHT22;15858;48.338;11.078;2024-03-08T04:33:38;1.50;99.90
28677;DHT22;15858;48.338;11.078;2024-03-08T04:36:05;1.50;99.90
28677;DHT22;15858;48.338;11.078;2024-03-08T04:38:32;1.60;99.90
28677;DHT22;15858;48.338;11.078;2024-03-08T04:40:59;1.60;99.90
28677;DHT22;15858;48.338;11.078;2024-03-08T04:43:26;1.60;99.90
28677;DHT22;15858;48.338;11.078;2024-03-08T04:45:53;1.60;99.90
28677;DHT22;15858;48.338;11.078;2024-03-08T04:48:19;1.70;99.90
28677;DHT22;15858;48.338;11.078;2024-03-08T04:50:46;1.60;99.90
28677;DHT22;15858;48.338;11.078;2024-03-08T04:53:13;1.50;99.90
28677;DHT22;15858;48.338;11.078;2024-03-08T04:55:40;1.50;99.90
28677;DHT22;15858;48.338;11.078;2024-03-08T04:58:06;1.50;99.90
28677;DHT22;15858;48.338;11.078;2024-03-08T05:00:33;1.50;99.90
28677;DHT22;15858;48.338;11.078;2024-03-08T05:03:00;1.60;99.90
28677;DHT22;15858;48.338;11.078;2024-03-08T05:05:27;1.50;99.90
28677;DHT22;15858;48.338;11.078;2024-03-08T05:07:53;1.50;99.90
28677;DHT22;15858;48.338;11.078;2024-03-08T05:10:20;1.50;99.90
28677;DHT22;15858;48.338;11.078;2024-03-08T05:12:47;1.60;99.90
28677;DHT22;15858;48.338;11.078;2024-03-08T05:15:13;1.50;99.90
28677;DHT22;15858;48.338;11.078;2024-03-08T05:17:40;1.50;99.90
28677;DHT22;15858;48.338;11.078;2024-03-08T05:20:07;1.60;99.90
28677;DHT22;15858;48.338;11.078;2024-03-08T05:22:34;1.60;99.90
28677;DHT22;15858;48.338;11.078;2024-03-08T05:25:01;1.70;99.90
28677;DHT22;15858;48.338;11.078;2024-03-08T05:27:28;1.60;99.90
28677;DHT22;15858;48.338;11.078;2024-03-08T05:29:54;1.60;99.90
28677;DHT22;15858;48.338;11.078;2024-03-08T05:32:21;1.50;99.90
28677;DHT22;15858;48.338;11.078;2024-03-08T05:34:48;1.60;99.90
28677;DHT22;15858;48.338;11.078;2024-03-08T05:37:14;1.70;99.90
28677;DHT22;15858;48.338;11.078;2024-03-08T05:39:41;1.70;99.90
28677;DHT22;15858;48.338;11.078;2024-03-08T05:42:08;1.60;99.90
28677;DHT22;15858;48.338;11.078;2024-03-08T05:44:35;1.70;99.90
28677;DHT22;15858;48.338;11.078;2024-03-08T05:47:01;1.80;99.90
28677;DHT22;15858;48.338;11.078;2024-03-08T05:49:28;1.80;99.90
28677;DHT22;15858;48.338;11.078;2024-03-08T05:51:55;1.70;99.90
28677;DHT22;15858;48.338;11.078;2024-03-08T05:54:21;1.60;99.90
28677;DHT22;15858;48.338;11.078;2024-03-08T05:56:49;1.70;99.90
28677;DHT22;15858;48.338;11.078;2024-03-08T05:59:16;1.80;99.90
28677;DHT22;15858;48.338;11.078;2024-03-08T06:01:43;1.90;99.90
28677;DHT22;15858;48.338;11.078;2024-03-08T06:04:09;1.90;99.90
28677;DHT22;15858;48.338;11.078;2024-03-08T06:06:36;1.80;99.90
28677;DHT22;15858;48.338;11.078;2024-03-08T06:09:03;1.90;99.90
28677;DHT22;15858;48.338;11.078;2024-03-08T06:11:30;1.80;99.90
28677;DHT22;15858;48.338;11.078;2024-03-08T06:13:56;1.90;99.90
28677;DHT22;15858;48.338;11.078;2024-03-08T06:16:23;1.90;99.90
28677;DHT22;15858;48.338;11.078;2024-03-08T06:18:50;1.80;99.90
28677;DHT22;15858;48.338;11.078;2024-03-08T06:21:16;2.00;99.90
28677;DHT22;15858;48.338;11.078;2024-03-08T06:23:43;1.80;99.90
28677;DHT22;15858;48.338;11.078;2024-03-08T06:26:10;1.90;99.90
28677;DHT22;15858;48.338;11.078;2024-03-08T06:28:37;1.80;99.90
28677;DHT22;15858;48.338;11.078;2024-03-08T06:31:03;1.70;99.90
28677;DHT22;15858;48.338;11.078;2024-03-08T06:33:30;1.70;99.90
28677;DHT22;15858;48.338;11.078;2024-03-08T06:35:57;1.90;99.90
28677;DHT22;15858;48.338;11.078;2024-03-08T06:38:25;2.00;99.90
28677;DHT22;15858;48.338;11.078;2024-03-08T06:40:52;2.00;99.90
28677;DHT22;15858;48.338;11.078;2024-03-08T06:43:19;2.00;99.90
28677;DHT22;15858;48.338;11.078;2024-03-08T06:45:46;1.90;99.90
28677;DHT22;15858;48.338;11.078;2024-03-08T06:48:12;1.90;99.90
28677;DHT22;15858;48.338;11.078;2024-03-08T06:50:39;1.90;99.90
28677;DHT22;15858;48.338;11.078;2024-03-08T06:53:06;2.00;99.90
28677;DHT22;15858;48.338;11.078;2024-03-08T06:55:33;2.00;99.90
28677;DHT22;15858;48.338;11.078;2024-03-08T06:58:00;2.10;99.90
28677;DHT22;15858;48.338;11.078;2024-03-08T07:00:26;2.00;99.90
28677;DHT22;15858;48.338;11.078;2024-03-08T07:02:53;2.10;99.90
28677;DHT22;15858;48.338;11.078;2024-03-08T07:05:22;2.10;99.90
28677;DHT22;15858;48.338;11.078;2024-03-08T07:07:56;2.00;99.90
28677;DHT22;15858;48.338;11.078;2024-03-08T07:10:23;2.10;99.90
28677;DHT22;15858;48.338;11.078;2024-03-08T07:12:50;2.10;99.90
28677;DHT22;15858;48.338;11.078;2024-03-08T07:15:17;2.20;99.90
28677;DHT22;15858;48.338;11.078;2024-03-08T07:17:43;2.10;99.90
28677;DHT22;15858;48.338;11.078;2024-03-08T07:20:11;2.00;99.90
28677;DHT22;15858;48.338;11.078;2024-03-08T07:22:39;2.00;99.90
28677;DHT22;15858;48.338;11.078;2024-03-08T07:25:12;2.10;99.90
28677;DHT22;15858;48.338;11.078;2024-03-08T07:27:38;2.10;99.90
28677;DHT22;15858;48.338;11.078;2024-03-08T07:30:06;2.00;99.90
28677;DHT22;15858;48.338;11.078;2024-03-08T07:32:36;2.00;99.90
28677;DHT22;15858;48.338;11.078;2024-03-08T07:35:05;1.90;99.90
28677;DHT22;15858;48.338;11.078;2024-03-08T07:37:32;1.90;99.90
28677;DHT22;15858;48.338;11.078;2024-03-08T07:39:59;2.10;99.90
28677;DHT22;15858;48.338;11.078;2024-03-08T07:42:26;2.00;99.90
28677;DHT22;15858;48.338;11.078;2024-03-08T07:44:52;2.10;99.90
28677;DHT22;15858;48.338;11.078;2024-03-08T07:47:19;2.10;99.90
28677;DHT22;15858;48.338;11.078;2024-03-08T07:49:50;2.10;99.90
28677;DHT22;15858;48.338;11.078;2024-03-08T07:52:17;2.00;99.90
28677;DHT22;15858;48.338;11.078;2024-03-08T07:54:44;2.00;99.90
28677;DHT22;15858;48.338;11.078;2024-03-08T07:57:10;2.20;99.90
28677;DHT22;15858;48.338;11.078;2024-03-08T07:59:37;2.30;99.90
28677;DHT22;15858;48.338;11.078;2024-03-08T08:02:04;2.10;99.90
28677;DHT22;15858;48.338;11.078;2024-03-08T08:04:31;2.10;99.90
28677;DHT22;15858;48.338;11.078;2024-03-08T08:06:57;2.10;99.90
28677;DHT22;15858;48.338;11.078;2024-03-08T08:09:24;2.30;99.90
28677;DHT22;15858;48.338;11.078;2024-03-08T08:11:51;2.50;99.90
28677;DHT22;15858;48.338;11.078;2024-03-08T08:14:17;2.50;99.90
28677;DHT22;15858;48.338;11.078;2024-03-08T08:16:44;2.50;99.90
28677;DHT22;15858;48.338;11.078;2024-03-08T08:19:11;2.40;99.90
28677;DHT22;15858;48.338;11.078;2024-03-08T08:21:39;2.20;99.90
28677;DHT22;15858;48.338;11.078;2024-03-08T08:24:06;2.30;99.90
28677;DHT22;15858;48.338;11.078;2024-03-08T08:26:33;2.50;99.90
28677;DHT22;15858;48.338;11.078;2024-03-08T08:29:05;2.50;99.90
28677;DHT22;15858;48.338;11.078;2024-03-08T08:31:32;2.50;99.90
28677;DHT22;15858;48.338;11.078;2024-03-08T08:33:59;2.50;99.90
28677;DHT22;15858;48.338;11.078;2024-03-08T08:36:26;2.50;99.90
28677;DHT22;15858;48.338;11.078;2024-03-08T08:38:52;2.60;99.90
28677;DHT22;15858;48.338;11.078;2024-03-08T08:41:19;2.60;99.90
28677;DHT22;15858;48.338;11.078;2024-03-08T08:43:46;2.70;99.90
28677;DHT22;15858;48.338;11.078;2024-03-08T08:46:28;2.70;99.90
28677;DHT22;15858;48.338;11.078;2024-03-08T08:48:55;2.70;99.90
28677;DHT22;15858;48.338;11.078;2024-03-08T08:51:21;2.70;99.90
28677;DHT22;15858;48.338;11.078;2024-03-08T08:53:48;2.70;99.90
28677;DHT22;15858;48.338;11.078;2024-03-08T08:56:15;2.70;99.90
28677;DHT22;15858;48.338;11.078;2024-03-08T08:58:42;2.90;99.90
28677;DHT22;15858;48.338;11.078;2024-03-08T09:01:09;3.00;99.90
28677;DHT22;15858;48.338;11.078;2024-03-08T09:03:36;2.90;99.90
28677;DHT22;15858;48.338;11.078;2024-03-08T09:06:04;3.00;99.90
28677;DHT22;15858;48.338;11.078;2024-03-08T09:08:31;2.90;99.90
28677;DHT22;15858;48.338;11.078;2024-03-08T09:10:59;3.10;99.90
28677;DHT22;15858;48.338;11.078;2024-03-08T09:13:26;3.20;99.90
28677;DHT22;15858;48.338;11.078;2024-03-08T09:15:58;3.30;99.90
28677;DHT22;15858;48.338;11.078;2024-03-08T09:18:25;3.40;99.90
28677;DHT22;15858;48.338;11.078;2024-03-08T09:20:52;3.50;99.90
28677;DHT22;15858;48.338;11.078;2024-03-08T09:23:22;3.30;99.90
28677;DHT22;15858;48.338;11.078;2024-03-08T09:25:48;3.40;99.90
28677;DHT22;15858;48.338;11.078;2024-03-08T09:28:15;3.60;99.90
28677;DHT22;15858;48.338;11.078;2024-03-08T09:30:42;3.70;99.90
28677;DHT22;15858;48.338;11.078;2024-03-08T09:33:16;3.80;99.90
28677;DHT22;15858;48.338;11.078;2024-03-08T09:35:43;3.80;99.90
28677;DHT22;15858;48.338;11.078;2024-03-08T09:38:10;3.70;99.90
28677;DHT22;15858;48.338;11.078;2024-03-08T09:40:37;3.70;99.90
28677;DHT22;15858;48.338;11.078;2024-03-08T09:43:03;3.80;99.90
28677;DHT22;15858;48.338;11.078;2024-03-08T09:45:32;3.80;99.90
28677;DHT22;15858;48.338;11.078;2024-03-08T09:48:02;3.80;99.90
28677;DHT22;15858;48.338;11.078;2024-03-08T09:50:29;3.70;99.90
28677;DHT22;15858;48.338;11.078;2024-03-08T09:52:55;3.90;99.90
28677;DHT22;15858;48.338;11.078;2024-03-08T09:55:24;4.10;99.90
28677;DHT22;15858;48.338;11.078;2024-03-08T09:57:53;4.00;99.90
28677;DHT22;15858;48.338;11.078;2024-03-08T10:00:20;4.10;99.90
28677;DHT22;15858;48.338;11.078;2024-03-08T10:02:47;4.20;99.90
28677;DHT22;15858;48.338;11.078;2024-03-08T10:05:14;4.20;99.90
28677;DHT22;15858;48.338;11.078;2024-03-08T10:07:40;4.30;99.90
28677;DHT22;15858;48.338;11.078;2024-03-08T10:10:07;4.50;99.90
28677;DHT22;15858;48.338;11.078;2024-03-08T10:12:34;4.70;99.90
28677;DHT22;15858;48.338;11.078;2024-03-08T10:15:01;5.00;99.90
28677;DHT22;15858;48.338;11.078;2024-03-08T10:17:28;5.10;99.90
28677;DHT22;15858;48.338;11.078;2024-03-08T10:19:55;5.30;99.90
28677;DHT22;15858;48.338;11.078;2024-03-08T10:22:22;5.50;99.90
28677;DHT22;15858;48.338;11.078;2024-03-08T10:24:49;5.80;99.90
28677;DHT22;15858;48.338;11.078;2024-03-08T10:27:19;5.90;99.90
28677;DHT22;15858;48.338;11.078;2024-03-08T10:29:48;6.10;99.90
28677;DHT22;15858;48.338;11.078;2024-03-08T10:32:15;6.20;99.90
28677;DHT22;15858;48.338;11.078;2024-03-08T10:34:42;6.20;99.90
28677;DHT22;15858;48.338;11.078;2024-03-08T10:37:14;6.20;99.90
28677;DHT22;15858;48.338;11.078;2024-03-08T10:39:45;6.20;99.90
28677;DHT22;15858;48.338;11.078;2024-03-08T10:42:16;6.40;99.90
28677;DHT22;15858;48.338;11.078;2024-03-08T10:45:15;6.50;99.90
28677;DHT22;15858;48.338;11.078;2024-03-08T10:47:48;6.60;99.90
28677;DHT22;15858;48.338;11.078;2024-03-08T10:50:19;6.70;99.90
28677;DHT22;15858;48.338;11.078;2024-03-08T10:52:50;6.90;99.90
28677;DHT22;15858;48.338;11.078;2024-03-08T10:55:18;7.10;99.90
28677;DHT22;15858;48.338;11.078;2024-03-08T10:57:45;7.20;99.90
28677;DHT22;15858;48.338;11.078;2024-03-08T11:00:13;7.40;99.90
28677;DHT22;15858;48.338;11.078;2024-03-08T11:02:44;7.40;99.90
28677;DHT22;15858;48.338;11.078;2024-03-08T11:05:31;7.40;99.90
28677;DHT22;15858;48.338;11.078;2024-03-08T11:07:59;7.40;99.90
28677;DHT22;15858;48.338;11.078;2024-03-08T11:10:25;7.60;99.90
28677;DHT22;15858;48.338;11.078;2024-03-08T11:12:52;7.80;99.90
28677;DHT22;15858;48.338;11.078;2024-03-08T11:15:19;8.00;99.90
28677;DHT22;15858;48.338;11.078;2024-03-08T11:17:49;8.00;99.90
28677;DHT22;15858;48.338;11.078;2024-03-08T11:20:18;8.00;99.90
28677;DHT22;15858;48.338;11.078;2024-03-08T11:22:53;8.20;99.90
28677;DHT22;15858;48.338;11.078;2024-03-08T11:25:32;8.20;99.90
28677;DHT22;15858;48.338;11.078;2024-03-08T11:30:33;8.60;99.90
28677;DHT22;15858;48.338;11.078;2024-03-08T11:33:03;8.70;99.90
28677;DHT22;15858;48.338;11.078;2024-03-08T11:35:30;8.90;99.90
28677;DHT22;15858;48.338;11.078;2024-03-08T11:38:00;8.80;99.90
28677;DHT22;15858;48.338;11.078;2024-03-08T11:40:27;8.80;99.90
28677;DHT22;15858;48.338;11.078;2024-03-08T11:42:54;9.10;99.90
28677;DHT22;15858;48.338;11.078;2024-03-08T11:45:21;9.10;99.90
28677;DHT22;15858;48.338;11.078;2024-03-08T11:47:48;9.10;99.90
28677;DHT22;15858;48.338;11.078;2024-03-08T11:50:17;9.10;99.90
28677;DHT22;15858;48.338;11.078;2024-03-08T11:52:44;9.30;99.90
28677;DHT22;15858;48.338;11.078;2024-03-08T11:55:11;9.30;99.90
28677;DHT22;15858;48.338;11.078;2024-03-08T11:57:38;9.30;99.90
28677;DHT22;15858;48.338;11.078;2024-03-08T12:00:05;9.40;99.90
28677;DHT22;15858;48.338;11.078;2024-03-08T12:02:35;9.40;99.90
28677;DHT22;15858;48.338;11.078;2024-03-08T12:05:02;9.40;99.90
28677;DHT22;15858;48.338;11.078;2024-03-08T12:07:29;9.50;99.90
28677;DHT22;15858;48.338;11.078;2024-03-08T12:10:22;9.60;99.90
28677;DHT22;15858;48.338;11.078;2024-03-08T12:12:51;9.60;99.90
28677;DHT22;15858;48.338;11.078;2024-03-08T12:15:20;9.80;99.90
28677;DHT22;15858;48.338;11.078;2024-03-08T12:17:51;9.80;99.90
28677;DHT22;15858;48.338;11.078;2024-03-08T12:20:23;10.00;99.90
28677;DHT22;15858;48.338;11.078;2024-03-08T12:22:51;10.10;99.90
28677;DHT22;15858;48.338;11.078;2024-03-08T12:25:19;10.20;99.90
28677;DHT22;15858;48.338;11.078;2024-03-08T12:27:46;10.40;99.90
28677;DHT22;15858;48.338;11.078;2024-03-08T12:30:26;10.40;99.90
28677;DHT22;15858;48.338;11.078;2024-03-08T12:32:58;10.30;99.90
28677;DHT22;15858;48.338;11.078;2024-03-08T12:35:30;10.30;99.90
28677;DHT22;15858;48.338;11.078;2024-03-08T12:37:57;10.20;99.90
28677;DHT22;15858;48.338;11.078;2024-03-08T12:40:26;10.30;99.90
28677;DHT22;15858;48.338;11.078;2024-03-08T12:42:54;10.40;99.90
28677;DHT22;15858;48.338;11.078;2024-03-08T12:45:22;10.40;99.90
28677;DHT22;15858;48.338;11.078;2024-03-08T12:47:53;10.20;99.90
28677;DHT22;15858;48.338;11.078;2024-03-08T12:50:21;10.20;99.90
28677;DHT22;15858;48.338;11.078;2024-03-08T12:52:48;10.50;99.90
28677;DHT22;15858;48.338;11.078;2024-03-08T12:55:19;10.50;99.90
28677;DHT22;15858;48.338;11.078;2024-03-08T12:57:46;10.30;99.90
28677;DHT22;15858;48.338;11.078;2024-03-08T13:00:14;10.40;99.90
28677;DHT22;15858;48.338;11.078;2024-03-08T13:02:40;10.50;99.90
28677;DHT22;15858;48.338;11.078;2024-03-08T13:05:07;10.60;99.90
28677;DHT22;15858;48.338;11.078;2024-03-08T13:07:34;10.70;99.90
28677;DHT22;15858;48.338;11.078;2024-03-08T13:10:01;10.70;99.90
28677;DHT22;15858;48.338;11.078;2024-03-08T13:12:28;10.70;99.90
28677;DHT22;15858;48.338;11.078;2024-03-08T13:14:54;10.70;99.90
28677;DHT22;15858;48.338;11.078;2024-03-08T13:17:21;10.80;99.90
28677;DHT22;15858;48.338;11.078;2024-03-08T13:19:48;11.00;99.90
28677;DHT22;15858;48.338;11.078;2024-03-08T13:22:15;11.20;99.90
28677;DHT22;15858;48.338;11.078;2024-03-08T13:24:44;11.10;99.90
28677;DHT22;15858;48.338;11.078;2024-03-08T13:27:11;11.20;99.90
28677;DHT22;15858;48.338;11.078;2024-03-08T13:29:38;10.90;99.90
28677;DHT22;15858;48.338;11.078;2024-03-08T13:32:04;11.20;99.90
28677;DHT22;15858;48.338;11.078;2024-03-08T13:34:31;11.20;99.90
28677;DHT22;15858;48.338;11.078;2024-03-08T13:36:58;11.10;99.90
28677;DHT22;15858;48.338;11.078;2024-03-08T13:39:24;11.00;99.90
28677;DHT22;15858;48.338;11.078;2024-03-08T13:41:53;11.00;99.90
28677;DHT22;15858;48.338;11.078;2024-03-08T13:44:19;11.00;99.90
28677;DHT22;15858;48.338;11.078;2024-03-08T13:46:47;11.10;99.90
28677;DHT22;15858;48.338;11.078;2024-03-08T13:49:14;11.20;99.90
28677;DHT22;15858;48.338;11.078;2024-03-08T13:51:40;11.20;99.90
28677;DHT22;15858;48.338;11.078;2024-03-08T13:54:07;11.10;99.90
28677;DHT22;15858;48.338;11.078;2024-03-08T13:56:34;11.20;99.90
28677;DHT22;15858;48.338;11.078;2024-03-08T13:59:01;11.00;99.90
28677;DHT22;15858;48.338;11.078;2024-03-08T14:01:28;11.00;99.90
28677;DHT22;15858;48.338;11.078;2024-03-08T14:03:55;11.10;99.90
28677;DHT22;15858;48.338;11.078;2024-03-08T14:06:21;11.30;99.90
28677;DHT22;15858;48.338;11.078;2024-03-08T14:08:49;11.30;99.90
28677;DHT22;15858;48.338;11.078;2024-03-08T14:11:16;11.40;99.90
28677;DHT22;15858;48.338;11.078;2024-03-08T14:13:43;11.30;99.90
28677;DHT22;15858;48.338;11.078;2024-03-08T14:16:11;11.20;99.90
28677;DHT22;15858;48.338;11.078;2024-03-08T14:18:38;11.30;99.90
28677;DHT22;15858;48.338;11.078;2024-03-08T14:21:05;11.40;99.90
28677;DHT22;15858;48.338;11.078;2024-03-08T14:23:32;11.40;99.90
28677;DHT22;15858;48.338;11.078;2024-03-08T14:25:58;11.30;99.90
28677;DHT22;15858;48.338;11.078;2024-03-08T14:28:26;11.50;99.90
28677;DHT22;15858;48.338;11.078;2024-03-08T14:30:53;11.40;99.90
28677;DHT22;15858;48.338;11.078;2024-03-08T14:33:20;11.40;99.90
28677;DHT22;15858;48.338;11.078;2024-03-08T14:35:46;11.50;99.90
28677;DHT22;15858;48.338;11.078;2024-03-08T14:38:14;11.50;99.90
28677;DHT22;15858;48.338;11.078;2024-03-08T14:40:41;11.40;99.90
28677;DHT22;15858;48.338;11.078;2024-03-08T14:43:08;11.20;99.90
28677;DHT22;15858;48.338;11.078;2024-03-08T14:45:34;11.40;99.90
28677;DHT22;15858;48.338;11.078;2024-03-08T14:48:01;11.40;99.90
28677;DHT22;15858;48.338;11.078;2024-03-08T14:50:28;11.30;99.90
28677;DHT22;15858;48.338;11.078;2024-03-08T14:52:55;11.20;99.90
28677;DHT22;15858;48.338;11.078;2024-03-08T14:55:22;11.10;99.90
28677;DHT22;15858;48.338;11.078;2024-03-08T14:57:49;11.20;99.90
28677;DHT22;15858;48.338;11.078;2024-03-08T15:00:17;11.10;99.90
28677;DHT22;15858;48.338;11.078;2024-03-08T15:02:44;10.90;99.90
28677;DHT22;15858;48.338;11.078;2024-03-08T15:05:11;11.00;99.90
28677;DHT22;15858;48.338;11.078;2024-03-08T15:07:38;11.10;99.90
28677;DHT22;15858;48.338;11.078;2024-03-08T15:10:07;11.00;99.90
28677;DHT22;15858;48.338;11.078;2024-03-08T15:12:34;11.00;99.90
28677;DHT22;15858;48.338;11.078;2024-03-08T15:15:00;11.00;99.90
28677;DHT22;15858;48.338;11.078;2024-03-08T15:17:27;10.90;99.90
28677;DHT22;15858;48.338;11.078;2024-03-08T15:19:54;10.90;99.90
28677;DHT22;15858;48.338;11.078;2024-03-08T15:22:21;10.80;99.90
28677;DHT22;15858;48.338;11.078;2024-03-08T15:24:47;10.70;99.90
28677;DHT22;15858;48.338;11.078;2024-03-08T15:27:14;10.60;99.90
28677;DHT22;15858;48.338;11.078;2024-03-08T15:29:41;10.40;99.90
28677;DHT22;15858;48.338;11.078;2024-03-08T15:32:07;10.50;99.90